createdAt,value
2022-12-29T00:04:37.883Z,0.8
2022-12-29T00:10:26.725Z,0.6
2022-12-29T00:16:15.964Z,0.6
2022-12-29T00:24:24.878Z,1.1
2022-12-29T00:30:12.831Z,1
2022-12-29T00:36:05.724Z,1
2022-12-29T00:41:55.877Z,1.2
2022-12-29T00:47:46.023Z,1.4
2022-12-29T00:53:37.040Z,1.5
2022-12-29T00:59:27.282Z,2
2022-12-29T01:05:21.686Z,1.8
2022-12-29T01:11:13.965Z,1.1
2022-12-29T01:17:04.437Z,0.5
2022-12-29T01:22:55.606Z,0.3
2022-12-29T01:28:46.020Z,0.4
2022-12-29T01:34:39.621Z,0.4
2022-12-29T01:40:35.213Z,0.6
2022-12-29T01:46:26.412Z,0.5
2022-12-29T01:52:17.823Z,0.5
2022-12-29T01:58:08.711Z,0.5
2022-12-29T02:03:59.661Z,0.7
2022-12-29T02:09:48.188Z,0.6
2022-12-29T02:15:37.495Z,0.8
2022-12-29T02:21:29.598Z,0.7
2022-12-29T02:27:22.423Z,0.7
2022-12-29T02:33:13.272Z,0.7
2022-12-29T02:39:06.182Z,0.7
2022-12-29T02:44:56.802Z,0.8
2022-12-29T02:50:47.091Z,0.9
2022-12-29T02:56:39.022Z,0.7
2022-12-29T03:02:30.314Z,0.7
2022-12-29T03:08:24.164Z,0.8
2022-12-29T03:14:14.170Z,0.8
2022-12-29T03:20:05.221Z,0.9
2022-12-29T03:25:57.080Z,0.9
2022-12-29T03:31:49.208Z,0.8
2022-12-29T03:37:39.888Z,0.8
2022-12-29T03:43:30.443Z,0.7
2022-12-29T03:49:22.692Z,0.7
2022-12-29T03:55:13.443Z,0.8
2022-12-29T04:01:06.125Z,0.8
2022-12-29T04:06:56.936Z,0.6
2022-12-29T04:12:47.682Z,0.7
2022-12-29T04:18:38.897Z,0.6
2022-12-29T04:24:31.062Z,0.6
2022-12-29T04:30:23.908Z,0.7
2022-12-29T04:36:15.173Z,0.8
2022-12-29T04:42:05.965Z,0.7
2022-12-29T04:47:56.382Z,0.8
2022-12-29T04:53:47.781Z,0.5
2022-12-29T04:59:39.779Z,0.6
2022-12-29T05:05:29.959Z,0.8
2022-12-29T05:11:22.072Z,0.8
2022-12-29T05:17:13.427Z,0.8
2022-12-29T05:23:01.830Z,0.9
2022-12-29T05:28:52.308Z,1
2022-12-29T05:34:44.485Z,1.3
2022-12-29T05:40:34.682Z,1
2022-12-29T05:46:26.658Z,0.9
2022-12-29T05:52:18.731Z,1.3
2022-12-29T05:58:10.384Z,1.1
2022-12-29T06:04:00.841Z,1
2022-12-29T06:09:49.051Z,1
2022-12-29T06:15:39.027Z,1.2
2022-12-29T06:21:29.799Z,1.2
2022-12-29T06:27:21.975Z,0.9
2022-12-29T06:33:11.279Z,1
2022-12-29T06:39:00.241Z,0.9
2022-12-29T06:44:51.779Z,1.1
2022-12-29T06:50:41.301Z,1
2022-12-29T06:56:30.235Z,1.1
2022-12-29T07:02:24.302Z,1
2022-12-29T07:08:13.839Z,0.8
2022-12-29T07:14:06.631Z,1.4
2022-12-29T07:19:55.341Z,0.8
2022-12-29T07:25:44.410Z,0.7
2022-12-29T07:31:33.908Z,0.4
2022-12-29T07:37:24.465Z,0.7
2022-12-29T07:43:13.282Z,0.6
2022-12-29T07:49:06.056Z,0.5
2022-12-29T07:54:55.809Z,0.6
2022-12-29T08:00:47.070Z,0.7
2022-12-29T08:06:35.886Z,0.6
2022-12-29T08:12:25.469Z,0.7
2022-12-29T08:18:15.565Z,0.7
2022-12-29T08:24:05.860Z,0.9
2022-12-29T08:29:57.450Z,0.8
2022-12-29T08:35:48.034Z,0.7
2022-12-29T08:41:40.077Z,0.7
2022-12-29T08:47:31.518Z,0.7
2022-12-29T08:53:22.253Z,0.9
2022-12-29T08:59:14.407Z,0.9
2022-12-29T09:05:06.108Z,0.9
2022-12-29T09:10:56.886Z,0.8
2022-12-29T09:16:47.902Z,1
2022-12-29T09:22:38.714Z,0.9
2022-12-29T09:28:30.589Z,1.1
2022-12-29T09:34:21.736Z,1.3
2022-12-29T09:40:12.746Z,1.2
2022-12-29T09:46:04.233Z,1.3
2022-12-29T09:51:57.360Z,2.6
2022-12-29T09:57:49.473Z,1.4
2022-12-29T10:03:40.384Z,1.1
2022-12-29T10:09:30.392Z,1.1
2022-12-29T10:15:21.239Z,1.3
2022-12-29T10:21:12.347Z,0.9
2022-12-29T10:27:02.535Z,0.8
2022-12-29T10:32:53.266Z,1
2022-12-29T10:38:44.736Z,0.9
2022-12-29T10:44:34.294Z,0.9
2022-12-29T10:50:24.747Z,1.1
2022-12-29T10:56:15.485Z,1.2
2022-12-29T11:02:07.824Z,1.3
2022-12-29T11:08:04.247Z,1.2
2022-12-29T11:13:52.967Z,1.1
2022-12-29T11:19:47.544Z,0.9
2022-12-29T11:25:40.023Z,1.2
2022-12-29T11:31:31.421Z,1.4
2022-12-29T11:37:19.316Z,1.5
2022-12-29T11:43:07.654Z,1.5
2022-12-29T11:48:58.233Z,1.5
2022-12-29T11:54:47.310Z,1.4
2022-12-29T12:00:35.575Z,1.6
2022-12-29T12:06:26.175Z,1.9
2022-12-29T12:12:16.430Z,1.4
2022-12-29T12:18:07.314Z,1.8
2022-12-29T12:23:56.371Z,1.4
2022-12-29T12:29:49.334Z,1.7
2022-12-29T12:35:39.011Z,1.6
2022-12-29T12:41:29.077Z,1.6
2022-12-29T12:47:20.444Z,1.4
2022-12-29T12:53:10.338Z,1.5
2022-12-29T12:59:09.738Z,1.8
2022-12-29T13:05:00.470Z,1.6
2022-12-29T13:10:57.239Z,1.8
2022-12-29T13:16:47.311Z,1.6
2022-12-29T13:22:40.064Z,1.2
2022-12-29T13:28:31.996Z,1.4
2022-12-29T13:34:20.688Z,1.8
2022-12-29T13:40:10.939Z,1.8
2022-12-29T13:45:59.487Z,1.4
2022-12-29T13:51:50.087Z,1.4
2022-12-29T13:57:40.959Z,1.3
2022-12-29T14:03:40.989Z,1.3
2022-12-29T14:09:41.798Z,1.3
2022-12-29T14:15:32.571Z,1.7
2022-12-29T14:27:58.137Z,1.5
2022-12-29T14:33:54.603Z,1.4
2022-12-29T14:39:52.778Z,1.6
2022-12-29T14:45:48.715Z,1.8
2022-12-29T14:51:41.460Z,1.6
2022-12-29T14:57:32.428Z,1.8
2022-12-29T15:03:24.157Z,1.4
2022-12-29T15:09:16.822Z,2.1
2022-12-29T15:15:11.181Z,2
2022-12-29T15:21:02.482Z,1.6
2022-12-29T15:26:56.161Z,1.7
2022-12-29T15:32:48.164Z,1.4
2022-12-29T15:38:47.265Z,1.5
2022-12-29T15:44:36.377Z,1.6
2022-12-29T15:50:27.897Z,1.5
2022-12-29T15:56:19.750Z,2
2022-12-29T16:02:18.095Z,1.8
2022-12-29T16:08:12.120Z,2.2
2022-12-29T16:14:07.635Z,2
2022-12-29T16:19:59.076Z,2.5
2022-12-29T16:26:03.708Z,2
2022-12-29T16:31:52.876Z,2.3
2022-12-29T16:37:43.390Z,1.8
2022-12-29T16:43:33.355Z,2.1
2022-12-29T16:49:31.454Z,2.8
2022-12-29T16:55:20.233Z,2.4
2022-12-29T17:01:10.254Z,2.4
2022-12-29T17:07:01.995Z,2.1
2022-12-29T17:12:51.422Z,2.8
2022-12-29T17:18:42.984Z,2.7
2022-12-29T17:24:38.332Z,2.5
2022-12-29T17:30:38.344Z,3
2022-12-29T17:36:30.196Z,4.1
2022-12-29T17:42:19.939Z,2.6
2022-12-29T17:48:10.714Z,3.1
2022-12-29T17:54:02.014Z,3
2022-12-29T17:59:51.253Z,3.2
2022-12-29T18:05:52.132Z,2.6
2022-12-29T18:11:41.658Z,3.3
2022-12-29T18:17:34.087Z,3.1
2022-12-29T18:23:25.024Z,3.3
2022-12-29T18:29:15.636Z,3.8
2022-12-29T18:35:05.732Z,4
2022-12-29T18:40:58.071Z,4.1
2022-12-29T18:46:52.141Z,4.7
2022-12-29T18:52:42.378Z,3.3
2022-12-29T18:58:39.338Z,3
2022-12-29T19:04:28.268Z,3.1
2022-12-29T19:11:29.039Z,3.1
2022-12-29T19:19:13.622Z,3.6
2022-12-29T19:25:18.861Z,4.8
2022-12-29T19:31:08.446Z,4.2
2022-12-29T19:36:58.635Z,3.4
2022-12-29T19:42:47.667Z,3.7
2022-12-29T19:48:37.510Z,4.2
2022-12-29T19:54:26.650Z,3.7
2022-12-29T20:00:17.362Z,3.6
2022-12-29T20:06:07.083Z,4
2022-12-29T20:11:56.805Z,4.7
2022-12-29T20:18:33.444Z,10.3
2022-12-29T20:24:22.052Z,6.2
2022-12-29T20:30:14.393Z,4.4
2022-12-29T20:36:04.377Z,7.2
2022-12-29T20:41:54.395Z,3.9
2022-12-29T20:47:50.803Z,3.1
2022-12-29T20:53:40.309Z,3.8
2022-12-29T20:59:35.261Z,6.5
2022-12-29T21:05:33.271Z,19
2022-12-29T21:11:22.009Z,12.9
2022-12-29T21:17:12.450Z,4.5
2022-12-29T21:23:11.777Z,4.9
2022-12-29T21:29:00.562Z,5
2022-12-29T21:35:00.911Z,4.2
2022-12-29T21:40:57.541Z,4.3
2022-12-29T21:46:57.584Z,3.2
2022-12-29T21:52:51.392Z,3.2
2022-12-29T21:58:42.179Z,3.8
2022-12-29T22:04:31.921Z,3.3
2022-12-29T22:10:23.372Z,3.7
2022-12-29T22:16:14.661Z,2.4
2022-12-29T22:22:06.099Z,3.3
2022-12-29T22:28:05.573Z,2.6
2022-12-29T22:33:54.908Z,4.2
2022-12-29T22:39:43.883Z,2.7
2022-12-29T22:45:33.525Z,2.9
2022-12-29T22:51:24.536Z,3.4
2022-12-29T22:57:14.165Z,4.8
2022-12-29T23:03:04.543Z,3.9
2022-12-29T23:08:53.167Z,3.3
2022-12-29T23:14:41.986Z,3
2022-12-29T23:20:31.288Z,2.8
2022-12-29T23:26:22.009Z,3.3
2022-12-29T23:32:12.147Z,3.2
2022-12-29T23:38:01.407Z,3.5
2022-12-29T23:43:51.630Z,3
2022-12-29T23:49:41.726Z,3.2
2022-12-29T23:55:32.487Z,3.7
